Angela Dawn — WDE3735 — position and weather

sailwx.info

Track history (hours):
 
Tides and Currents Weather Stations Pressure Air Temp Water Temp Dewpoint Dewpoint Depression Visibility Wind Speed Wind Dir Waves Ship Positions

Angela Dawn

Owner: Star Dog Yachts LLC, Virginia Beach, VA. More information available from US FCC via Universal Licensing System and Coast Guard Vessel Documentation Center.

Last reported at 2018-Apr-24 06:44 UTC. Time now 2018-Apr-24 07:07 UTC.
Position N 26°07' W 080°06'.

Length 23 m.

Type: Pleasure craft. MMSI: 367343470.

Date/timePositionNaut miles runAvg speedWind from/ knotsBaromVisibWave heightAir tempDewpointWater temp
2018-Apr-24 06:44N 26°07' W 080°06'0 0.0
2018-Apr-24 06:26N 26°07' W 080°06'0 0.0
2018-Apr-24 05:56N 26°07' W 080°06'0 0.0
2018-Apr-24 05:26N 26°07' W 080°06'0 0.0
2018-Apr-24 04:56N 26°07' W 080°06'0 0.0
2018-Apr-24 04:29N 26°07' W 080°06'0 0.0
2018-Apr-24 03:59N 26°07' W 080°06'0 0.0
2018-Apr-24 03:26N 26°07' W 080°06'0 0.0
2018-Apr-24 02:55N 26°07' W 080°06'0 0.0
2018-Apr-24 02:28N 26°07' W 080°06'0 0.0
2018-Apr-24 01:55N 26°07' W 080°06'0 0.0
2018-Apr-24 01:28N 26°07' W 080°06'0 0.0
2018-Apr-24 00:55N 26°07' W 080°06'0 0.0
2018-Apr-24 00:28N 26°07' W 080°06'0 0.0
2018-Apr-23 23:58N 26°07' W 080°06'0 0.0
2018-Apr-23 23:28N 26°07' W 080°06'0 0.0
2018-Apr-23 22:58N 26°07' W 080°06'0 0.0
2018-Apr-23 22:28N 26°07' W 080°06'0 0.0
2018-Apr-23 21:55N 26°07' W 080°06'0 0.0
2018-Apr-23 21:01N 26°07' W 080°06'0 0.0
2018-Apr-23 20:46N 26°07' W 080°06'0 0.0
2018-Apr-23 20:25N 26°07' W 080°06'0 0.0
2018-Apr-23 19:58N 26°07' W 080°06'0 0.0
2018-Apr-23 19:13N 26°07' W 080°06'0 0.0
2018-Apr-23 18:58N 26°07' W 080°06'0 0.0
2018-Apr-23 18:16N 26°07' W 080°06'0 0.0
2018-Apr-23 17:58N 26°07' W 080°06'0 0.0
2018-Apr-23 17:28N 26°07' W 080°06'0 0.0
2018-Apr-23 16:46N 26°07' W 080°06'0 0.0
2018-Apr-23 16:28N 26°07' W 080°06'0 0.0
2018-Apr-23 15:58N 26°07' W 080°06'0 0.0
2018-Apr-23 15:28N 26°07' W 080°06'0 0.0
2018-Apr-23 14:46N 26°07' W 080°06'0 0.0
2018-Apr-23 14:28N 26°07' W 080°06'  
2018-Apr-20 18:52N 26°07' W 080°06'0 0.0
2018-Apr-20 18:24N 26°07' W 080°06'2 3.9
2018-Apr-20 17:56N 26°06' W 080°05'2 1.0
2018-Apr-20 15:36N 26°07' W 080°07'1 1.8
2018-Apr-20 15:12N 26°07' W 080°06'0 0.0
2018-Apr-20 14:57N 26°07' W 080°06'0 0.0
2018-Apr-20 14:27N 26°07' W 080°06'0 0.0
2018-Apr-20 14:00N 26°07' W 080°06'0 0.0
2018-Apr-20 13:25N 26°07' W 080°06'0 0.0
2018-Apr-20 12:52N 26°07' W 080°06'  
2018-Apr-17 20:00N 26°07' W 080°06'3 5.2
2018-Apr-17 19:28N 26°04' W 080°07'1 0.5
2018-Apr-17 16:49N 26°04' W 080°08'1 3.8
2018-Apr-17 16:30N 26°04' W 080°07'3 4.5
2018-Apr-17 15:54N 26°07' W 080°06'0 0.0
2018-Apr-17 15:21N 26°07' W 080°06'0 0.0
2018-Apr-17 14:51N 26°07' W 080°06'0 0.0
2018-Apr-17 14:27N 26°07' W 080°06'0 0.0
2018-Apr-17 13:57N 26°07' W 080°06'0 0.0
2018-Apr-17 13:27N 26°07' W 080°06'0 0.0
2018-Apr-17 12:57N 26°07' W 080°06'0 0.0
2018-Apr-17 12:27N 26°07' W 080°06'0 0.0
2018-Apr-17 11:57N 26°07' W 080°06'0 0.0
2018-Apr-17 11:30N 26°07' W 080°06'0 0.0
2018-Apr-17 10:57N 26°07' W 080°06'0 0.0
2018-Apr-17 10:27N 26°07' W 080°06'0 0.0
2018-Apr-17 10:00N 26°07' W 080°06'0 0.0
2018-Apr-17 09:30N 26°07' W 080°06'0 0.0
2018-Apr-17 09:00N 26°07' W 080°06'0 0.0
2018-Apr-17 08:27N 26°07' W 080°06'0 0.0
2018-Apr-17 07:48N 26°07' W 080°06'0 0.0
2018-Apr-17 07:27N 26°07' W 080°06'0 0.0
2018-Apr-17 07:00N 26°07' W 080°06'0 0.0
2018-Apr-17 06:15N 26°07' W 080°06'0 0.0
2018-Apr-17 06:00N 26°07' W 080°06'0 0.0
2018-Apr-17 05:30N 26°07' W 080°06'0 0.0
2018-Apr-17 05:00N 26°07' W 080°06'0 0.0
2018-Apr-17 04:30N 26°07' W 080°06'0 0.0
2018-Apr-17 03:48N 26°07' W 080°06'0 0.0
2018-Apr-17 03:21N 26°07' W 080°06'0 0.0
2018-Apr-17 02:51N 26°07' W 080°06'0 0.0
2018-Apr-17 02:24N 26°07' W 080°06'0 0.0
2018-Apr-17 01:54N 26°07' W 080°06'0 0.0
2018-Apr-17 01:21N 26°07' W 080°06'0 0.0
2018-Apr-17 00:54N 26°07' W 080°06'0 0.0
2018-Apr-17 00:24N 26°07' W 080°06'0 0.0
2018-Apr-16 23:54N 26°07' W 080°06'0 0.0
2018-Apr-16 23:27N 26°07' W 080°06'0 0.0
2018-Apr-16 22:57N 26°07' W 080°06'0 0.0
2018-Apr-16 22:24N 26°07' W 080°06'0 0.0
2018-Apr-16 21:57N 26°07' W 080°06'0 0.0
2018-Apr-16 21:24N 26°07' W 080°06'0 0.0
2018-Apr-16 20:57N 26°07' W 080°06'0 0.0
2018-Apr-16 20:15N 26°07' W 080°06'0 0.0
2018-Apr-16 20:00N 26°07' W 080°06'0 0.0
2018-Apr-16 19:12N 26°07' W 080°06'0 0.0
2018-Apr-16 19:00N 26°07' W 080°06'0 0.0
2018-Apr-16 18:27N 26°07' W 080°06'0 0.0
2018-Apr-16 17:45N 26°07' W 080°06'0 0.0
2018-Apr-16 17:30N 26°07' W 080°06'0 0.0
2018-Apr-16 16:57N 26°07' W 080°06'0 0.0
2018-Apr-16 16:30N 26°07' W 080°06'0 0.0
2018-Apr-16 16:00N 26°07' W 080°06'0 0.0
2018-Apr-16 15:18N 26°07' W 080°06'0 0.0
2018-Apr-16 15:00N 26°07' W 080°06'0 0.0
2018-Apr-16 14:21N 26°07' W 080°06'0 0.0
2018-Apr-16 13:51N 26°07' W 080°06'0 0.0
2018-Apr-16 13:21N 26°07' W 080°06'0 0.0
2018-Apr-16 12:51N 26°07' W 080°06'0 0.0
2018-Apr-16 12:21N 26°07' W 080°06'0 0.0
2018-Apr-16 11:51N 26°07' W 080°06'0 0.0
2018-Apr-16 11:24N 26°07' W 080°06'0 0.0
2018-Apr-16 10:54N 26°07' W 080°06'0 0.0
2018-Apr-16 10:21N 26°07' W 080°06'0 0.0
2018-Apr-16 09:54N 26°07' W 080°06'0 0.0
2018-Apr-16 09:24N 26°07' W 080°06'0 0.0
2018-Apr-16 08:54N 26°07' W 080°06'0 0.0
2018-Apr-16 08:27N 26°07' W 080°06'0 0.0
2018-Apr-16 07:39N 26°07' W 080°06'0 0.0
2018-Apr-16 07:27N 26°07' W 080°06'0 0.0
2018-Apr-16 06:57N 26°07' W 080°06'0 0.0
2018-Apr-16 06:27N 26°07' W 080°06'0 0.0
2018-Apr-16 05:54N 26°07' W 080°06'0 0.0
2018-Apr-16 05:27N 26°07' W 080°06'0 0.0
2018-Apr-16 04:45N 26°07' W 080°06'0 0.0
2018-Apr-16 04:27N 26°07' W 080°06'0 0.0
2018-Apr-16 03:45N 26°07' W 080°06'0 0.0
2018-Apr-16 03:27N 26°07' W 080°06'0 0.0
2018-Apr-16 02:45N 26°07' W 080°06'0 0.0
2018-Apr-16 02:30N 26°07' W 080°06'0 0.0
2018-Apr-16 01:45N 26°07' W 080°06'0 0.0
2018-Apr-16 01:18N 26°07' W 080°06'0 0.0
2018-Apr-16 00:45N 26°07' W 080°06'0 0.0
2018-Apr-16 00:15N 26°07' W 080°06'0 0.0
2018-Apr-16 00:00N 26°07' W 080°06'0 0.0
2018-Apr-15 23:21N 26°07' W 080°06'0 0.0
2018-Apr-15 22:51N 26°07' W 080°06'0 0.0
2018-Apr-15 22:15N 26°07' W 080°06'0 0.0
2018-Apr-15 21:48N 26°07' W 080°06'0 0.0
2018-Apr-15 21:06N 26°07' W 080°06'0 0.0
2018-Apr-15 20:51N 26°07' W 080°06'0 0.0
2018-Apr-15 20:21N 26°07' W 080°06'0 0.0
2018-Apr-15 19:39N 26°07' W 080°06'0 0.0
2018-Apr-15 19:21N 26°07' W 080°06'0 0.0
2018-Apr-15 18:51N 26°07' W 080°06'0 0.0
2018-Apr-15 18:06N 26°07' W 080°06'0 0.0
2018-Apr-15 17:54N 26°07' W 080°06'0 0.0
2018-Apr-15 17:06N 26°07' W 080°06'0 0.0
2018-Apr-15 16:57N 26°07' W 080°06'0 0.0
2018-Apr-15 16:27N 26°07' W 080°06'0 0.0
2018-Apr-15 15:50N 26°07' W 080°06'0 0.0
2018-Apr-15 15:23N 26°07' W 080°06'0 0.0
2018-Apr-15 14:54N 26°07' W 080°06'0 0.0
2018-Apr-15 13:29N 26°07' W 080°06'0 0.0
2018-Apr-15 12:59N 26°07' W 080°06'0 0.0
2018-Apr-15 12:26N 26°07' W 080°06'0 0.0
2018-Apr-15 11:56N 26°07' W 080°06'0 0.0
2018-Apr-15 11:29N 26°07' W 080°06'0 0.0
2018-Apr-15 10:47N 26°07' W 080°06'0 0.0
2018-Apr-15 10:26N 26°07' W 080°06'0 0.0
2018-Apr-15 09:56N 26°07' W 080°06'0 0.0
2018-Apr-15 09:29N 26°07' W 080°06'0 0.0
2018-Apr-15 08:59N 26°07' W 080°06'0 0.0
2018-Apr-15 08:17N 26°07' W 080°06'0 0.0
2018-Apr-15 07:50N 26°07' W 080°06'0 0.0
2018-Apr-15 07:20N 26°07' W 080°06'0 0.0
2018-Apr-15 06:47N 26°07' W 080°06'0 0.0
2018-Apr-15 06:20N 26°07' W 080°06'0 0.0
2018-Apr-15 05:50N 26°07' W 080°06'0 0.0
2018-Apr-15 05:08N 26°07' W 080°06'0 0.0
2018-Apr-15 04:53N 26°07' W 080°06'0 0.0
2018-Apr-15 04:23N 26°07' W 080°06'0 0.0
2018-Apr-15 03:50N 26°07' W 080°06'0 0.0
2018-Apr-15 03:24N 26°07' W 080°06'0 0.0
2018-Apr-15 02:53N 26°07' W 080°06'0 0.0
2018-Apr-15 02:23N 26°07' W 080°06'0 0.0
2018-Apr-15 01:56N 26°07' W 080°06'0 0.0
2018-Apr-15 01:11N 26°07' W 080°06'0 0.0
2018-Apr-15 00:56N 26°07' W 080°06'0 0.0
2018-Apr-15 00:26N 26°07' W 080°06'0 0.0
2018-Apr-14 23:56N 26°07' W 080°06'0 0.0
2018-Apr-14 23:26N 26°07' W 080°06'0 0.0
2018-Apr-14 22:53N 26°07' W 080°06'0 0.0
2018-Apr-14 22:26N 26°07' W 080°06'0 0.0
2018-Apr-14 21:56N 26°07' W 080°06'0 0.0
2018-Apr-14 21:29N 26°07' W 080°06'0 0.0
2018-Apr-14 20:56N 26°07' W 080°06'0 0.0
2018-Apr-14 20:26N 26°07' W 080°06'0 0.0
2018-Apr-14 19:56N 26°07' W 080°06'0 0.0
2018-Apr-14 19:02N 26°07' W 080°06'0 0.0
2018-Apr-14 18:47N 26°07' W 080°06'0 0.0
2018-Apr-14 18:14N 26°07' W 080°06'0 0.0
2018-Apr-14 17:44N 26°07' W 080°06'0 0.0
2018-Apr-14 17:17N 26°07' W 080°06'0 0.0
2018-Apr-14 16:47N 26°07' W 080°06'0 0.0
2018-Apr-14 16:20N 26°07' W 080°06'0 0.0
2018-Apr-14 15:59N 26°07' W 080°06'0 0.0
2018-Apr-14 15:20N 26°07' W 080°06'0 0.0
2018-Apr-14 14:50N 26°07' W 080°06'0 0.0
2018-Apr-14 14:20N 26°07' W 080°06'0 0.0
2018-Apr-14 13:53N 26°07' W 080°06'0 0.0
2018-Apr-14 13:20N 26°07' W 080°06'0 0.0
2018-Apr-14 12:50N 26°07' W 080°06'0 0.0
2018-Apr-14 12:23N 26°07' W 080°06'0 0.0
2018-Apr-14 11:38N 26°07' W 080°06'0 0.0
2018-Apr-14 11:11N 26°07' W 080°06'0 0.0
2018-Apr-14 10:50N 26°07' W 080°06'0 0.0
2018-Apr-14 10:26N 26°07' W 080°06'0 0.0
2018-Apr-14 09:56N 26°07' W 080°06'0 0.0
2018-Apr-14 09:23N 26°07' W 080°06'0 0.0
2018-Apr-14 08:08N 26°07' W 080°06'0 0.0
2018-Apr-14 07:59N 26°07' W 080°06'0 0.0
2018-Apr-14 07:26N 26°07' W 080°06'0 0.0
2018-Apr-14 06:56N 26°07' W 080°06'  
Track history (hours):
 
Tides and Currents Weather Stations Pressure Air Temp Water Temp Dewpoint Dewpoint Depression Visibility Wind Speed Wind Dir Waves Ship Positions

Angela Dawn

Owner: Star Dog Yachts LLC, Virginia Beach, VA. More information available from US FCC via Universal Licensing System and Coast Guard Vessel Documentation Center.

Last reported at 2018-Apr-24 06:44 UTC. Time now 2018-Apr-24 07:07 UTC.
Position N 26°07' W 080°06'.

Length 23 m.

Type: Pleasure craft. MMSI: 367343470.

Date/timePositionNaut miles runAvg speedWind from/ knotsBaromVisibWave heightAir tempDewpointWater temp
2018-Apr-24 06:44N 26°07' W 080°06'0 0.0
2018-Apr-24 06:26N 26°07' W 080°06'0 0.0
2018-Apr-24 05:56N 26°07' W 080°06'0 0.0
2018-Apr-24 05:26N 26°07' W 080°06'0 0.0
2018-Apr-24 04:56N 26°07' W 080°06'0 0.0
2018-Apr-24 04:29N 26°07' W 080°06'0 0.0
2018-Apr-24 03:59N 26°07' W 080°06'0 0.0
2018-Apr-24 03:26N 26°07' W 080°06'0 0.0
2018-Apr-24 02:55N 26°07' W 080°06'0 0.0
2018-Apr-24 02:28N 26°07' W 080°06'0 0.0
2018-Apr-24 01:55N 26°07' W 080°06'0 0.0
2018-Apr-24 01:28N 26°07' W 080°06'0 0.0
2018-Apr-24 00:55N 26°07' W 080°06'0 0.0
2018-Apr-24 00:28N 26°07' W 080°06'0 0.0
2018-Apr-23 23:58N 26°07' W 080°06'0 0.0
2018-Apr-23 23:28N 26°07' W 080°06'0 0.0
2018-Apr-23 22:58N 26°07' W 080°06'0 0.0
2018-Apr-23 22:28N 26°07' W 080°06'0 0.0
2018-Apr-23 21:55N 26°07' W 080°06'0 0.0
2018-Apr-23 21:01N 26°07' W 080°06'0 0.0
2018-Apr-23 20:46N 26°07' W 080°06'0 0.0
2018-Apr-23 20:25N 26°07' W 080°06'0 0.0
2018-Apr-23 19:58N 26°07' W 080°06'0 0.0
2018-Apr-23 19:13N 26°07' W 080°06'0 0.0
2018-Apr-23 18:58N 26°07' W 080°06'0 0.0
2018-Apr-23 18:16N 26°07' W 080°06'0 0.0
2018-Apr-23 17:58N 26°07' W 080°06'0 0.0
2018-Apr-23 17:28N 26°07' W 080°06'0 0.0
2018-Apr-23 16:46N 26°07' W 080°06'0 0.0
2018-Apr-23 16:28N 26°07' W 080°06'0 0.0
2018-Apr-23 15:58N 26°07' W 080°06'0 0.0
2018-Apr-23 15:28N 26°07' W 080°06'0 0.0
2018-Apr-23 14:46N 26°07' W 080°06'0 0.0
2018-Apr-23 14:28N 26°07' W 080°06'  
2018-Apr-20 18:52N 26°07' W 080°06'0 0.0
2018-Apr-20 18:24N 26°07' W 080°06'2 3.9
2018-Apr-20 17:56N 26°06' W 080°05'2 1.0
2018-Apr-20 15:36N 26°07' W 080°07'1 1.8
2018-Apr-20 15:12N 26°07' W 080°06'0 0.0
2018-Apr-20 14:57N 26°07' W 080°06'0 0.0
2018-Apr-20 14:27N 26°07' W 080°06'0 0.0
2018-Apr-20 14:00N 26°07' W 080°06'0 0.0
2018-Apr-20 13:25N 26°07' W 080°06'0 0.0
2018-Apr-20 12:52N 26°07' W 080°06'  
2018-Apr-17 20:00N 26°07' W 080°06'3 5.2
2018-Apr-17 19:28N 26°04' W 080°07'1 0.5
2018-Apr-17 16:49N 26°04' W 080°08'1 3.8
2018-Apr-17 16:30N 26°04' W 080°07'3 4.5
2018-Apr-17 15:54N 26°07' W 080°06'0 0.0
2018-Apr-17 15:21N 26°07' W 080°06'0 0.0
2018-Apr-17 14:51N 26°07' W 080°06'0 0.0
2018-Apr-17 14:27N 26°07' W 080°06'0 0.0
2018-Apr-17 13:57N 26°07' W 080°06'0 0.0
2018-Apr-17 13:27N 26°07' W 080°06'0 0.0
2018-Apr-17 12:57N 26°07' W 080°06'0 0.0
2018-Apr-17 12:27N 26°07' W 080°06'0 0.0
2018-Apr-17 11:57N 26°07' W 080°06'0 0.0
2018-Apr-17 11:30N 26°07' W 080°06'0 0.0
2018-Apr-17 10:57N 26°07' W 080°06'0 0.0
2018-Apr-17 10:27N 26°07' W 080°06'0 0.0
2018-Apr-17 10:00N 26°07' W 080°06'0 0.0
2018-Apr-17 09:30N 26°07' W 080°06'0 0.0
2018-Apr-17 09:00N 26°07' W 080°06'0 0.0
2018-Apr-17 08:27N 26°07' W 080°06'0 0.0
2018-Apr-17 07:48N 26°07' W 080°06'0 0.0
2018-Apr-17 07:27N 26°07' W 080°06'0 0.0
2018-Apr-17 07:00N 26°07' W 080°06'0 0.0
2018-Apr-17 06:15N 26°07' W 080°06'0 0.0
2018-Apr-17 06:00N 26°07' W 080°06'0 0.0
2018-Apr-17 05:30N 26°07' W 080°06'0 0.0
2018-Apr-17 05:00N 26°07' W 080°06'0 0.0
2018-Apr-17 04:30N 26°07' W 080°06'0 0.0
2018-Apr-17 03:48N 26°07' W 080°06'0 0.0
2018-Apr-17 03:21N 26°07' W 080°06'0 0.0
2018-Apr-17 02:51N 26°07' W 080°06'0 0.0
2018-Apr-17 02:24N 26°07' W 080°06'0 0.0
2018-Apr-17 01:54N 26°07' W 080°06'0 0.0
2018-Apr-17 01:21N 26°07' W 080°06'0 0.0
2018-Apr-17 00:54N 26°07' W 080°06'0 0.0
2018-Apr-17 00:24N 26°07' W 080°06'0 0.0
2018-Apr-16 23:54N 26°07' W 080°06'0 0.0
2018-Apr-16 23:27N 26°07' W 080°06'0 0.0
2018-Apr-16 22:57N 26°07' W 080°06'0 0.0
2018-Apr-16 22:24N 26°07' W 080°06'0 0.0
2018-Apr-16 21:57N 26°07' W 080°06'0 0.0
2018-Apr-16 21:24N 26°07' W 080°06'0 0.0
2018-Apr-16 20:57N 26°07' W 080°06'0 0.0
2018-Apr-16 20:15N 26°07' W 080°06'0 0.0
2018-Apr-16 20:00N 26°07' W 080°06'0 0.0
2018-Apr-16 19:12N 26°07' W 080°06'0 0.0
2018-Apr-16 19:00N 26°07' W 080°06'0 0.0
2018-Apr-16 18:27N 26°07' W 080°06'0 0.0
2018-Apr-16 17:45N 26°07' W 080°06'0 0.0
2018-Apr-16 17:30N 26°07' W 080°06'0 0.0
2018-Apr-16 16:57N 26°07' W 080°06'0 0.0
2018-Apr-16 16:30N 26°07' W 080°06'0 0.0
2018-Apr-16 16:00N 26°07' W 080°06'0 0.0
2018-Apr-16 15:18N 26°07' W 080°06'0 0.0
2018-Apr-16 15:00N 26°07' W 080°06'0 0.0
2018-Apr-16 14:21N 26°07' W 080°06'0 0.0
2018-Apr-16 13:51N 26°07' W 080°06'0 0.0
2018-Apr-16 13:21N 26°07' W 080°06'0 0.0
2018-Apr-16 12:51N 26°07' W 080°06'0 0.0
2018-Apr-16 12:21N 26°07' W 080°06'0 0.0
2018-Apr-16 11:51N 26°07' W 080°06'0 0.0
2018-Apr-16 11:24N 26°07' W 080°06'0 0.0
2018-Apr-16 10:54N 26°07' W 080°06'0 0.0
2018-Apr-16 10:21N 26°07' W 080°06'0 0.0
2018-Apr-16 09:54N 26°07' W 080°06'0 0.0
2018-Apr-16 09:24N 26°07' W 080°06'0 0.0
2018-Apr-16 08:54N 26°07' W 080°06'0 0.0
2018-Apr-16 08:27N 26°07' W 080°06'0 0.0
2018-Apr-16 07:39N 26°07' W 080°06'0 0.0
2018-Apr-16 07:27N 26°07' W 080°06'0 0.0
2018-Apr-16 06:57N 26°07' W 080°06'0 0.0
2018-Apr-16 06:27N 26°07' W 080°06'0 0.0
2018-Apr-16 05:54N 26°07' W 080°06'0 0.0
2018-Apr-16 05:27N 26°07' W 080°06'0 0.0
2018-Apr-16 04:45N 26°07' W 080°06'0 0.0
2018-Apr-16 04:27N 26°07' W 080°06'0 0.0
2018-Apr-16 03:45N 26°07' W 080°06'0 0.0
2018-Apr-16 03:27N 26°07' W 080°06'0 0.0
2018-Apr-16 02:45N 26°07' W 080°06'0 0.0
2018-Apr-16 02:30N 26°07' W 080°06'0 0.0
2018-Apr-16 01:45N 26°07' W 080°06'0 0.0
2018-Apr-16 01:18N 26°07' W 080°06'0 0.0
2018-Apr-16 00:45N 26°07' W 080°06'0 0.0
2018-Apr-16 00:15N 26°07' W 080°06'0 0.0
2018-Apr-16 00:00N 26°07' W 080°06'0 0.0
2018-Apr-15 23:21N 26°07' W 080°06'0 0.0
2018-Apr-15 22:51N 26°07' W 080°06'0 0.0
2018-Apr-15 22:15N 26°07' W 080°06'0 0.0
2018-Apr-15 21:48N 26°07' W 080°06'0 0.0
2018-Apr-15 21:06N 26°07' W 080°06'0 0.0
2018-Apr-15 20:51N 26°07' W 080°06'0 0.0
2018-Apr-15 20:21N 26°07' W 080°06'0 0.0
2018-Apr-15 19:39N 26°07' W 080°06'0 0.0
2018-Apr-15 19:21N 26°07' W 080°06'0 0.0
2018-Apr-15 18:51N 26°07' W 080°06'0 0.0
2018-Apr-15 18:06N 26°07' W 080°06'0 0.0
2018-Apr-15 17:54N 26°07' W 080°06'0 0.0
2018-Apr-15 17:06N 26°07' W 080°06'0 0.0
2018-Apr-15 16:57N 26°07' W 080°06'0 0.0
2018-Apr-15 16:27N 26°07' W 080°06'0 0.0
2018-Apr-15 15:50N 26°07' W 080°06'0 0.0
2018-Apr-15 15:23N 26°07' W 080°06'0 0.0
2018-Apr-15 14:54N 26°07' W 080°06'0 0.0
2018-Apr-15 13:29N 26°07' W 080°06'0 0.0
2018-Apr-15 12:59N 26°07' W 080°06'0 0.0
2018-Apr-15 12:26N 26°07' W 080°06'0 0.0
2018-Apr-15 11:56N 26°07' W 080°06'0 0.0
2018-Apr-15 11:29N 26°07' W 080°06'0 0.0
2018-Apr-15 10:47N 26°07' W 080°06'0 0.0
2018-Apr-15 10:26N 26°07' W 080°06'0 0.0
2018-Apr-15 09:56N 26°07' W 080°06'0 0.0
2018-Apr-15 09:29N 26°07' W 080°06'0 0.0
2018-Apr-15 08:59N 26°07' W 080°06'0 0.0
2018-Apr-15 08:17N 26°07' W 080°06'0 0.0
2018-Apr-15 07:50N 26°07' W 080°06'0 0.0
2018-Apr-15 07:20N 26°07' W 080°06'0 0.0
2018-Apr-15 06:47N 26°07' W 080°06'0 0.0
2018-Apr-15 06:20N 26°07' W 080°06'0 0.0
2018-Apr-15 05:50N 26°07' W 080°06'0 0.0
2018-Apr-15 05:08N 26°07' W 080°06'0 0.0
2018-Apr-15 04:53N 26°07' W 080°06'0 0.0
2018-Apr-15 04:23N 26°07' W 080°06'0 0.0
2018-Apr-15 03:50N 26°07' W 080°06'0 0.0
2018-Apr-15 03:24N 26°07' W 080°06'0 0.0
2018-Apr-15 02:53N 26°07' W 080°06'0 0.0
2018-Apr-15 02:23N 26°07' W 080°06'0 0.0
2018-Apr-15 01:56N 26°07' W 080°06'0 0.0
2018-Apr-15 01:11N 26°07' W 080°06'0 0.0
2018-Apr-15 00:56N 26°07' W 080°06'0 0.0
2018-Apr-15 00:26N 26°07' W 080°06'0 0.0
2018-Apr-14 23:56N 26°07' W 080°06'0 0.0
2018-Apr-14 23:26N 26°07' W 080°06'0 0.0
2018-Apr-14 22:53N 26°07' W 080°06'0 0.0
2018-Apr-14 22:26N 26°07' W 080°06'0 0.0
2018-Apr-14 21:56N 26°07' W 080°06'0 0.0
2018-Apr-14 21:29N 26°07' W 080°06'0 0.0
2018-Apr-14 20:56N 26°07' W 080°06'0 0.0
2018-Apr-14 20:26N 26°07' W 080°06'0 0.0
2018-Apr-14 19:56N 26°07' W 080°06'0 0.0
2018-Apr-14 19:02N 26°07' W 080°06'0 0.0
2018-Apr-14 18:47N 26°07' W 080°06'0 0.0
2018-Apr-14 18:14N 26°07' W 080°06'0 0.0
2018-Apr-14 17:44N 26°07' W 080°06'0 0.0
2018-Apr-14 17:17N 26°07' W 080°06'0 0.0
2018-Apr-14 16:47N 26°07' W 080°06'0 0.0
2018-Apr-14 16:20N 26°07' W 080°06'0 0.0
2018-Apr-14 15:59N 26°07' W 080°06'0 0.0
2018-Apr-14 15:20N 26°07' W 080°06'0 0.0
2018-Apr-14 14:50N 26°07' W 080°06'0 0.0
2018-Apr-14 14:20N 26°07' W 080°06'0 0.0
2018-Apr-14 13:53N 26°07' W 080°06'0 0.0
2018-Apr-14 13:20N 26°07' W 080°06'0 0.0
2018-Apr-14 12:50N 26°07' W 080°06'0 0.0
2018-Apr-14 12:23N 26°07' W 080°06'0 0.0
2018-Apr-14 11:38N 26°07' W 080°06'0 0.0
2018-Apr-14 11:11N 26°07' W 080°06'0 0.0
2018-Apr-14 10:50N 26°07' W 080°06'0 0.0
2018-Apr-14 10:26N 26°07' W 080°06'0 0.0
2018-Apr-14 09:56N 26°07' W 080°06'0 0.0
2018-Apr-14 09:23N 26°07' W 080°06'0 0.0
2018-Apr-14 08:08N 26°07' W 080°06'0 0.0
2018-Apr-14 07:59N 26°07' W 080°06'0 0.0
2018-Apr-14 07:26N 26°07' W 080°06'0 0.0
2018-Apr-14 06:56N 26°07' W 080°06'  

Dump ship's entire track history